M I D A S
Marine Information and Data Acquisition System
Tripno 1025 of the Zeeleeuw from 2006-01-19 07:34:41 to 2006-01-19 16:23:26
Back to CruiseResearch ActivitiesStationsMapUnderway DataData graphs

EquipmentUnitsComment
TimeDGPSUTC
LatitudeDGPSDM.mWGS84
LongitudeDGPSDM.mWGS84
HeadingGyrodeg 
SOGDGPSknotsSpeed over ground
COGDGPSdegCourse over ground
DepthEcho soundermeters200 kHz
Missing or incorrect values are displayed as -999
Navigation data collected by the RV Zeeleeuw from 2006-01-19 07:34:12 to 2006-01-19 16:40:00
Time Latitude Longitude Heading SOG COG Depth
2006-01-19 07:35:17 51°13.599 2°56.097 123.2 -999 186 5.4
2006-01-19 07:36:17 51°13.597 2°56.098 118.2 0.1 169 5.4
2006-01-19 07:37:17 51°13.605 2°56.077 118.3 1.6 298 40
2006-01-19 07:38:17 51°13.623 2°56.021 117.8 2.6 296 36.5
2006-01-19 07:39:17 51°13.655 2°55.917 120.2 5.5 297 71.3
2006-01-19 07:40:17 51°13.69 2°55.79 106.2 4.3 288 33.8
2006-01-19 07:41:17 51°13.703 2°55.758 53.3 1.5 31 12.9
2006-01-19 07:42:17 51°13.711 2°55.758 15.2 1.6 199 45.6
2006-01-19 07:43:17 51°13.716 2°55.743 339.1 2.4 332 12.6
2006-01-19 07:44:17 51°13.775 2°55.677 335.3 5.3 332 9.5
2006-01-19 07:45:17 51°13.865 2°55.612 340.2 6.4 336 8.9
2006-01-19 07:46:17 51°13.966 2°55.539 341 6.8 336 9.2
2006-01-19 07:47:17 51°14.069 2°55.464 339.5 6.8 334 9.4
2006-01-19 07:48:17 51°14.179 2°55.367 333.6 8.2 327 9.4
2006-01-19 07:49:17 51°14.286 2°55.218 316.8 8.6 310 9.4
2006-01-19 07:50:17 51°14.38 2°55.026 312.5 9.9 304 9.6
2006-01-19 07:51:17 51°14.439 2°54.762 288.6 11.5 280 9.3
2006-01-19 07:52:17 51°14.465 2°54.425 280.7 13.2 276 9
2006-01-19 07:53:17 51°14.435 2°54.09 248 13 242 8.8
2006-01-19 07:54:17 51°14.321 2°53.791 245.3 13.3 241 8.7
2006-01-19 07:55:17 51°14.207 2°53.486 243.5 13.4 240 8.8
2006-01-19 07:56:16 51°14.097 2°53.184 242.4 13.3 238 9.1
2006-01-19 07:57:17 51°13.981 2°52.872 243.1 13.4 237 9.4
2006-01-19 07:58:17 51°13.861 2°52.577 243.8 13.3 240 9.5
2006-01-19 07:59:17 51°13.746 2°52.278 242.2 13.3 238 9.6
2006-01-19 08:00:17 51°13.631 2°51.976 242.1 13.4 237 9.7
2006-01-19 08:01:17 51°13.513 2°51.672 244.3 13.4 239 9.7
2006-01-19 08:02:17 51°13.395 2°51.369 243.1 13.5 238 9.9
2006-01-19 08:03:17 51°13.276 2°51.065 243.6 13.5 239 10
2006-01-19 08:04:17 51°13.158 2°50.759 242.4 13.6 238 10
2006-01-19 08:05:17 51°13.041 2°50.451 242.5 13.5 238 10.1
2006-01-19 08:06:17 51°12.927 2°50.14 245.5 13.6 241 10.2
2006-01-19 08:07:17 51°12.816 2°49.826 245.3 13.6 241 10.3
2006-01-19 08:08:17 51°12.706 2°49.513 245.5 13.6 241 10.4
2006-01-19 08:09:17 51°12.596 2°49.198 244.8 13.6 240 10.5
2006-01-19 08:10:17 51°12.486 2°48.885 245.8 13.6 241 10.5
2006-01-19 08:11:17 51°12.378 2°48.569 245.7 13.6 241 10.6
2006-01-19 08:12:17 51°12.268 2°48.254 245.6 13.6 241 10.6
2006-01-19 08:13:17 51°12.159 2°47.937 245.7 13.7 241 10.6
2006-01-19 08:14:17 51°12.05 2°47.623 245.3 13.5 241 10.6
2006-01-19 08:15:17 51°11.942 2°47.308 246.4 13.5 242 10.6
2006-01-19 08:16:17 51°11.832 2°46.995 244.8 13.5 241 10.3
2006-01-19 08:17:17 51°11.727 2°46.679 244.5 13.5 241 10.3
2006-01-19 08:18:17 51°11.621 2°46.364 245.9 13.5 242 10.3
2006-01-19 08:19:17 51°11.515 2°46.05 247.6 13.5 245 10
2006-01-19 08:20:17 51°11.426 2°45.721 249.3 13.6 246 10
2006-01-19 08:21:17 51°11.34 2°45.389 253.6 13.6 250 9.9
2006-01-19 08:22:17 51°11.255 2°45.057 249.3 13.5 246 9.9
2006-01-19 08:23:17 51°11.168 2°44.725 250.4 13.6 246 9.8
2006-01-19 08:24:17 51°11.082 2°44.393 253.3 13.6 250 9.7
2006-01-19 08:25:17 51°11.007 2°44.054 253.1 13.6 250 9.7
2006-01-19 08:26:17 51°10.929 2°43.715 253.9 13.6 251 9.6
2006-01-19 08:27:17 51°10.85 2°43.377 252.2 13.6 248 9.6
2006-01-19 08:28:18 51°10.774 2°43.031 252.1 13.6 249 9.6
2006-01-19 08:29:17 51°10.7 2°42.697 253.3 13.6 250 9.6
2006-01-19 08:30:17 51°10.625 2°42.357 254.7 13.6 252 9.6
2006-01-19 08:31:17 51°10.547 2°42.019 253.5 13.6 251 9.7
2006-01-19 08:32:17 51°10.472 2°41.678 251.8 13.6 250 9.8
2006-01-19 08:33:17 51°10.4 2°41.336 252.7 13.6 250 9.8
2006-01-19 08:34:17 51°10.33 2°40.993 255 13.6 253 9.9
2006-01-19 08:35:17 51°10.259 2°40.649 254.2 13.7 252 10
2006-01-19 08:36:17 51°10.185 2°40.307 251.9 13.7 251 10.1
2006-01-19 08:37:17 51°10.113 2°39.963 252.7 13.7 251 10.1
2006-01-19 08:38:17 51°10.041 2°39.619 253.7 13.7 252 10.3
2006-01-19 08:39:17 51°9.969 2°39.273 254.2 13.8 253 10.6
2006-01-19 08:40:17 51°9.898 2°38.925 252.9 13.8 252 11.1
2006-01-19 08:41:17 51°9.828 2°38.576 252 13.8 251 11.5
2006-01-19 08:42:17 51°9.759 2°38.224 253.3 13.9 252 12.1
2006-01-19 08:43:17 51°9.687 2°37.876 253.2 13.9 252 12.7
2006-01-19 08:44:17 51°9.615 2°37.526 254 13.9 252 13.3
2006-01-19 08:45:17 51°9.541 2°37.176 252.5 13.9 251 13.9
2006-01-19 08:46:17 51°9.468 2°36.825 253.1 14 252 14.4
2006-01-19 08:47:17 51°9.393 2°36.475 252.8 14 251 14.2
2006-01-19 08:48:17 51°9.317 2°36.123 253 14.1 252 14.5
2006-01-19 08:49:17 51°9.247 2°35.766 254.6 14.1 253 14.6
2006-01-19 08:50:17 51°9.177 2°35.412 254.2 14 253 14.7
2006-01-19 08:51:17 51°9.107 2°35.059 254 14 252 15
2006-01-19 08:52:17 51°9.039 2°34.706 255.1 13.9 253 15.1
2006-01-19 08:53:17 51°8.976 2°34.351 258.1 13.9 255 13.9
2006-01-19 08:54:17 51°8.917 2°33.996 257.6 13.9 255 13.7
2006-01-19 08:55:18 51°8.893 2°33.732 288.8 7.8 287 14.8
2006-01-19 08:56:17 51°8.985 2°33.693 40 5.8 39 16.1
2006-01-19 08:57:18 51°8.963 2°33.839 118.3 6.8 117 14.8
2006-01-19 08:58:17 51°8.962 2°33.966 81.7 4 84 13.8
2006-01-19 08:59:18 51°8.956 2°34.008 115.3 0.5 182 14
2006-01-19 09:00:17 51°8.946 2°34.002 130.8 0.7 208 13.8
2006-01-19 09:01:17 51°8.935 2°33.993 139.3 1.3 176 13.7
2006-01-19 09:02:17 51°8.88 2°33.971 209.3 4.8 217 14.7
2006-01-19 09:03:17 51°8.86 2°33.843 294.7 5.3 288 14.1
2006-01-19 09:04:17 51°8.921 2°33.786 14.9 2.1 345 14.7
2006-01-19 09:05:17 51°8.921 2°33.763 52.2 0.9 258 14.8
2006-01-19 09:06:17 51°8.923 2°33.747 49.4 1.2 13 14.9
2006-01-19 09:07:17 51°8.966 2°33.714 327.4 4.4 307 15.7
2006-01-19 09:08:17 51°8.963 2°33.588 242.3 5.2 238 16.3
2006-01-19 09:09:17 51°8.895 2°33.548 155.3 4.1 161 16
2006-01-19 09:10:17 51°8.831 2°33.606 162.7 4.2 172 15.2
2006-01-19 09:11:17 51°8.812 2°33.594 206.4 0.5 258 27
2006-01-19 09:12:17 51°8.809 2°33.579 206.4 1.1 231 4.7
2006-01-19 09:13:17 51°8.784 2°33.514 259 3.8 252 15.3
2006-01-19 09:14:18 51°8.771 2°33.445 254.5 0.2 86 15.6
2006-01-19 09:15:17 51°8.77 2°33.444 266.3 0.2 226 15.8
2006-01-19 09:16:18 51°8.767 2°33.421 259.1 2 259 15.6
2006-01-19 09:17:17 51°8.742 2°33.356 222.9 3.7 228 15.9
2006-01-19 09:18:18 51°8.686 2°33.281 213.6 4 219 15.8
2006-01-19 09:19:17 51°8.676 2°33.26 234.2 0.3 263 41.9
2006-01-19 09:20:18 51°8.671 2°33.242 237.8 2.3 236 42.5
2006-01-19 09:21:17 51°8.611 2°33.139 234.5 5.6 233 66.9
2006-01-19 09:22:17 51°8.595 2°33.101 259.8 0.5 230 66.3
2006-01-19 09:23:17 51°8.59 2°33.09 275.8 0.6 239 52.2
2006-01-19 09:24:17 51°8.573 2°33.029 233.4 4.1 231 15.9
2006-01-19 09:25:17 51°8.528 2°32.957 225.6 2.7 229 15.6
2006-01-19 09:26:17 51°8.522 2°32.943 244.8 0.5 231 64.4
2006-01-19 09:27:17 51°8.513 2°32.917 241.9 2.6 238 14.3
2006-01-19 09:28:17 51°8.466 2°32.825 237.6 5.1 235 15.6
2006-01-19 09:29:17 51°8.439 2°32.758 254 0.1 168 16.1
2006-01-19 09:30:18 51°8.434 2°32.755 273.5 0.3 207 64.1
2006-01-19 09:31:17 51°8.43 2°32.721 274.3 2.9 265 40.8
2006-01-19 09:32:18 51°8.409 2°32.599 254.9 5.5 250 16.5
2006-01-19 09:33:17 51°8.388 2°32.521 245.7 0.8 254 16.7
2006-01-19 09:34:17 51°8.386 2°32.502 261 0.8 262 76.2
2006-01-19 09:35:17 51°8.383 2°32.481 275.7 1.1 260 73.4
2006-01-19 09:36:17 51°8.378 2°32.432 259.6 2 257 35
2006-01-19 09:37:17 51°8.372 2°32.391 259.1 0.8 258 16.9
2006-01-19 09:38:17 51°8.37 2°32.409 276.2 1.1 104 32
2006-01-19 09:39:17 51°8.364 2°32.43 292.9 0.8 133 16.6
2006-01-19 09:40:17 51°8.356 2°32.431 308.4 0.9 265 16.5
2006-01-19 09:41:18 51°8.361 2°32.352 274.9 4.5 265 17
2006-01-19 09:42:18 51°8.384 2°32.238 333.7 4.4 320 17.4
2006-01-19 09:43:18 51°8.427 2°32.216 25.6 0.9 323 17.5
2006-01-19 09:44:17 51°8.438 2°32.244 88.2 1.3 100 17.4
2006-01-19 09:45:18 51°8.427 2°32.258 114.1 0.7 156 17.4
2006-01-19 09:46:18 51°8.415 2°32.266 117.5 1.3 137 17.4
2006-01-19 09:47:17 51°8.418 2°32.323 66.4 3.4 66 17.3
2006-01-19 09:48:17 51°8.456 2°32.422 57.9 5 54 16.8
2006-01-19 09:49:17 51°8.472 2°32.473 70.4 0.3 86 17
2006-01-19 09:50:17 51°8.47 2°32.482 87 0.4 125 17.1
2006-01-19 09:51:18 51°8.468 2°32.52 84.8 2.5 86 17.2
2006-01-19 09:52:18 51°8.503 2°32.605 46.6 4.8 37 17.5
2006-01-19 09:53:17 51°8.553 2°32.634 30.1 0.7 345 17.8
2006-01-19 09:54:18 51°8.561 2°32.628 36.9 0.5 357 17.8
2006-01-19 09:55:17 51°8.571 2°32.626 41.3 1.1 21 17.7
2006-01-19 09:56:17 51°8.597 2°32.674 62.2 3.6 58 17.8
2006-01-19 09:57:18 51°8.625 2°32.782 76.7 4.5 76 18
2006-01-19 09:58:17 51°8.624 2°32.838 97.7 0.7 123 17.8
2006-01-19 09:59:17 51°8.615 2°32.851 105.5 0.7 143 17.7
2006-01-19 10:00:18 51°8.606 2°32.906 88.2 3.3 87 17.3
2006-01-19 10:01:17 51°8.646 2°32.952 20.5 3.9 7 17.3
2006-01-19 10:02:17 51°8.701 2°33.002 58 2.9 51 16.9
2006-01-19 10:03:17 51°8.717 2°33.017 33.9 0.9 5 16.8
2006-01-19 10:04:18 51°8.733 2°33.016 27.6 1.5 8 16.7
2006-01-19 10:05:17 51°8.766 2°33.059 62.5 3.5 59 16.6
2006-01-19 10:06:17 51°8.791 2°33.159 73.4 3.9 72 16.5
2006-01-19 10:07:17 51°8.791 2°33.206 108 1 127 16.6
2006-01-19 10:08:17 51°8.776 2°33.22 120.9 1.5 138 16.5
2006-01-19 10:09:17 51°8.781 2°33.276 51.3 3.1 43 16.6
2006-01-19 10:10:18 51°8.842 2°33.312 25 4 11 16.5
2006-01-19 10:11:18 51°8.87 2°33.306 38.4 0.7 273 16.5
2006-01-19 10:12:18 51°8.87 2°33.291 53.3 0.5 274 16.6
2006-01-19 10:13:17 51°8.87 2°33.281 64.5 0.3 272 16.6
2006-01-19 10:14:17 51°8.874 2°33.303 75.3 4.2 73 16.5
2006-01-19 10:15:17 51°8.915 2°33.449 62.5 5.3 59 16.5
2006-01-19 10:16:17 51°8.947 2°33.51 67.4 0.1 296 16.4
2006-01-19 10:17:18 51°8.945 2°33.506 83.5 0.2 205 16.4
2006-01-19 10:18:18 51°8.942 2°33.537 87.8 2.9 89 16.4
2006-01-19 10:19:18 51°8.965 2°33.641 64.2 4.9 60 16.3
2006-01-19 10:20:18 51°8.992 2°33.739 79.4 1.9 81 15.7
2006-01-19 10:21:17 51°8.989 2°33.743 78.1 0.2 169 15.8
2006-01-19 10:22:18 51°8.992 2°33.777 80.1 4.3 78 15.8
2006-01-19 10:23:17 51°9.031 2°33.889 47.1 3.8 39 15
2006-01-19 10:24:17 51°9.053 2°33.914 51.8 0.8 29 15.2
2006-01-19 10:25:17 51°9.064 2°33.919 46.8 0.7 11 15.1
2006-01-19 10:26:18 51°9.113 2°33.91 350.3 4.3 325 16.1
2006-01-19 10:27:18 51°9.133 2°33.796 275 3.4 266 16.6
2006-01-19 10:28:17 51°9.13 2°33.782 275.4 0.3 203 75.3
2006-01-19 10:29:18 51°9.123 2°33.777 291.6 0.5 209 16.6
2006-01-19 10:30:17 51°9.116 2°33.769 299.7 0.5 223 16.6
2006-01-19 10:31:18 51°9.112 2°33.75 315 2 289 16.6
2006-01-19 10:32:17 51°9.119 2°33.663 273.3 3.5 264 16.5
2006-01-19 10:33:18 51°9.115 2°33.627 269.3 0.4 249 52.5
2006-01-19 10:34:18 51°9.11 2°33.617 287.4 0.6 229 35
2006-01-19 10:35:18 51°9.101 2°33.552 250.9 3.9 246 16.7
2006-01-19 10:36:17 51°9.041 2°33.473 209.2 5.7 213 16.9
2006-01-19 10:37:18 51°8.979 2°33.38 232.9 2.7 231 16.9
2006-01-19 10:38:18 51°8.981 2°33.379 240.3 0.2 33 16.9
2006-01-19 10:39:18 51°8.983 2°33.383 257 0.2 97 17
2006-01-19 10:40:18 51°8.97 2°33.313 255.6 4.6 250 16.9
2006-01-19 10:41:17 51°8.943 2°33.23 235.1 1.8 242 17
2006-01-19 10:42:18 51°8.943 2°33.219 246 0.2 257 17
2006-01-19 10:43:17 51°8.941 2°33.213 257.8 0.2 236 17
2006-01-19 10:44:18 51°8.938 2°33.207 275.8 0.4 219 17
2006-01-19 10:45:18 51°8.928 2°33.148 251.1 4.2 246 17.1
2006-01-19 10:46:18 51°8.901 2°33.088 223.6 0.8 241 17.2
2006-01-19 10:47:17 51°8.906 2°33.085 219.2 0.4 319 17.3
2006-01-19 10:48:17 51°8.891 2°33.058 215.8 3.8 218 17.2
2006-01-19 10:49:18 51°8.827 2°32.95 234 5.5 232 17.2
2006-01-19 10:50:18 51°8.796 2°32.886 246.8 0.2 107 17.2
2006-01-19 10:51:18 51°8.791 2°32.892 263.4 0.3 152 17.2
2006-01-19 10:52:18 51°8.781 2°32.853 253.3 3.4 247 17.3
2006-01-19 10:53:17 51°8.731 2°32.75 230.3 5.8 229 17.6
2006-01-19 10:54:18 51°8.708 2°32.709 242.3 0.2 132 32.4
2006-01-19 10:55:17 51°8.705 2°32.71 254.7 0.2 169 17.6
2006-01-19 10:56:17 51°8.684 2°32.627 248.4 5.1 243 17.6
2006-01-19 10:57:17 51°8.655 2°32.549 241.2 0.6 239 17.7
2006-01-19 10:58:17 51°8.654 2°32.552 250.5 0.1 147 34.1
2006-01-19 10:59:18 51°8.633 2°32.502 230.6 4.8 227 17.7
2006-01-19 11:00:17 51°8.564 2°32.427 218.7 3.3 218 17.6
2006-01-19 11:01:18 51°8.559 2°32.423 230.4 0.3 66 63.6
2006-01-19 11:02:17 51°8.562 2°32.427 230.2 0.2 35 17.7
2006-01-19 11:03:18 51°8.523 2°32.34 243.8 7.7 240 17.9
2006-01-19 11:04:17 51°8.485 2°32.211 256.9 2.4 247 18
2006-01-19 11:05:17 51°8.477 2°32.222 273.6 0.9 130 18.1
2006-01-19 11:06:17 51°8.467 2°32.235 293.6 0.9 160 18.4
2006-01-19 11:07:17 51°8.451 2°32.237 310.6 0.9 183 18.3
2006-01-19 11:08:18 51°8.436 2°32.232 315.9 0.8 194 18.3
2006-01-19 11:09:17 51°8.424 2°32.224 323 0.8 203 18.3
2006-01-19 11:10:18 51°8.413 2°32.214 329.2 0.7 215 18.3
2006-01-19 11:11:18 51°8.404 2°32.203 334.6 0.7 222 18.5
2006-01-19 11:12:18 51°8.397 2°32.189 336.7 0.7 230 18.5
2006-01-19 11:13:17 51°8.391 2°32.175 333.5 0.7 241 18.5
2006-01-19 11:14:18 51°8.386 2°32.157 328 0.7 246 18.3
2006-01-19 11:15:17 51°8.381 2°32.14 321.6 0.7 245 18.3
2006-01-19 11:16:18 51°8.376 2°32.122 316.2 0.8 243 18.4
2006-01-19 11:17:17 51°8.37 2°32.105 313.3 0.7 243 18.5
2006-01-19 11:18:17 51°8.365 2°32.087 312 0.7 244 18.3
2006-01-19 11:19:17 51°8.359 2°32.069 311.1 0.7 245 18.2
2006-01-19 11:20:17 51°8.355 2°32.052 312.7 0.7 254 18.2
2006-01-19 11:21:17 51°8.359 2°32.02 316.4 1.6 288 18
2006-01-19 11:22:17 51°8.38 2°31.967 334.3 2.9 312 17.8
2006-01-19 11:23:17 51°8.424 2°31.936 13.8 2.9 359 17.7
2006-01-19 11:24:17 51°8.475 2°31.945 21.8 3.4 11 17.8
2006-01-19 11:25:17 51°8.52 2°31.991 53.4 3.3 50 17.6
2006-01-19 11:26:17 51°8.544 2°32.046 57.1 2 57 17.8
2006-01-19 11:27:17 51°8.557 2°32.085 69.9 1.2 79 17.9
2006-01-19 11:28:17 51°8.557 2°32.106 73.6 0.6 94 18
2006-01-19 11:29:17 51°8.555 2°32.12 82.3 0.5 113 18.1
2006-01-19 11:30:17 51°8.549 2°32.13 96.1 0.5 148 18.1
2006-01-19 11:31:17 51°8.54 2°32.135 105.8 0.5 170 18.1
2006-01-19 11:32:17 51°8.532 2°32.134 110.4 0.5 186 18.1
2006-01-19 11:33:17 51°8.524 2°32.131 116.9 0.6 198 18.1
2006-01-19 11:34:17 51°8.515 2°32.126 124 0.6 204 18.2
2006-01-19 11:35:17 51°8.508 2°32.119 130.2 0.5 207 18.1
2006-01-19 11:36:17 51°8.5 2°32.112 134.9 0.5 209 18.2
2006-01-19 11:37:17 51°8.492 2°32.105 137.6 0.5 209 18.1
2006-01-19 11:38:17 51°8.485 2°32.099 137.4 0.5 209 18.1
2006-01-19 11:39:17 51°8.468 2°32.104 148 2.2 161 18.1
2006-01-19 11:40:17 51°8.403 2°32.092 203.8 4.8 207 18.3
2006-01-19 11:41:17 51°8.369 2°31.982 282.9 4.8 274 18.2
2006-01-19 11:42:17 51°8.418 2°31.91 5.1 4.1 356 18.1
2006-01-19 11:43:17 51°8.476 2°31.948 26.6 3.9 19 18
2006-01-19 11:44:17 51°8.531 2°32.014 55.9 4.6 52 18
2006-01-19 11:45:17 51°8.581 2°32.084 35.8 3.2 29 18
2006-01-19 11:46:17 51°8.607 2°32.1 31.2 0.3 244 18.1
2006-01-19 11:47:17 51°8.608 2°32.092 41.8 0.2 274 17.9
2006-01-19 11:48:17 51°8.61 2°32.095 54.5 1.1 51 18.1
2006-01-19 11:49:17 51°8.628 2°32.162 74.3 3.8 72 18.2
2006-01-19 11:50:17 51°8.651 2°32.267 69.8 3.8 68 18.5
2006-01-19 11:51:17 51°8.664 2°32.312 62.4 0.2 209 18.6
2006-01-19 11:52:17 51°8.664 2°32.313 68.7 0.1 25 18.6
2006-01-19 11:53:17 51°8.675 2°32.345 67.2 3.1 63 18.7
2006-01-19 11:54:17 51°8.709 2°32.425 55.2 3.6 51 18.7
2006-01-19 11:55:17 51°8.729 2°32.457 44.7 -999 220 18.7
2006-01-19 11:56:18 51°8.732 2°32.457 47.2 0.2 24 18.7
2006-01-19 11:57:17 51°8.755 2°32.498 56.8 3.5 51 18.6
2006-01-19 11:58:17 51°8.791 2°32.586 66.2 3.7 62 18.8
2006-01-19 11:59:17 51°8.8 2°32.627 97.9 0.1 56 18.8
2006-01-19 12:00:17 51°8.799 2°32.63 111.4 0.2 125 18.8
2006-01-19 12:01:17 51°8.796 2°32.685 84.7 3.4 81 18.8
2006-01-19 12:02:17 51°8.836 2°32.769 42.1 4.2 35 18.7
2006-01-19 12:03:17 51°8.886 2°32.81 28.6 1.6 17 18.7
2006-01-19 12:04:17 51°8.886 2°32.807 13.7 0.1 319 18.7
2006-01-19 12:05:17 51°8.89 2°32.805 2.8 0.8 349 18.7
2006-01-19 12:06:17 51°8.933 2°32.812 29.4 3.7 23 18.5
2006-01-19 12:07:17 51°8.96 2°32.898 95 3.5 92 18.5
2006-01-19 12:08:17 51°8.961 2°32.977 87 1.9 83 18.6
2006-01-19 12:09:17 51°8.962 2°32.983 75.7 0.1 38 18.6
2006-01-19 12:10:17 51°8.966 2°32.993 79 1.5 71 18.5
2006-01-19 12:11:17 51°8.99 2°33.063 59.3 3.9 54 18.4
2006-01-19 12:12:17 51°9.024 2°33.137 61.7 2.1 55 18.3
2006-01-19 12:13:17 51°9.029 2°33.143 76.8 0.2 2 18.3
2006-01-19 12:14:17 51°9.033 2°33.157 82 2.1 73 18.3
2006-01-19 12:15:17 51°9.057 2°33.247 67.2 4.3 62 18.3
2006-01-19 12:16:17 51°9.08 2°33.302 57.5 0.1 218 18.3
2006-01-19 12:17:17 51°9.082 2°33.298 62.1 0.2 333 18.3
2006-01-19 12:18:17 51°9.086 2°33.299 67.8 0.3 27 18.3
2006-01-19 12:19:17 51°9.092 2°33.307 76.2 1 58 18.3
2006-01-19 12:20:17 51°9.114 2°33.386 70.5 4.6 65 18.4
2006-01-19 12:21:17 51°9.141 2°33.508 83.8 3.9 79 18.3
2006-01-19 12:22:17 51°9.146 2°33.525 114.1 0.3 358 18.4
2006-01-19 12:23:17 51°9.151 2°33.528 105.4 0.8 78 18.4
2006-01-19 12:24:17 51°9.162 2°33.609 73.8 4.4 68 18.4
2006-01-19 12:25:17 51°9.193 2°33.713 77.1 2.4 68 18.4
2006-01-19 12:26:17 51°9.199 2°33.722 89.6 0.3 19 18.6
2006-01-19 12:27:17 51°9.204 2°33.726 92.1 0.4 31 18.6
2006-01-19 12:28:17 51°9.21 2°33.732 97.2 0.4 35 18.6
2006-01-19 12:29:17 51°9.221 2°33.77 64.6 3.1 54 18.8
2006-01-19 12:30:17 51°9.278 2°33.787 343.3 3.9 337 18.1
2006-01-19 12:31:17 51°9.309 2°33.711 276.1 3.8 271 17.5
2006-01-19 12:32:18 51°9.294 2°33.643 243 1.6 246 17.9
2006-01-19 12:33:17 51°9.294 2°33.627 261.2 0.4 293 17.9
2006-01-19 12:34:17 51°9.299 2°33.617 279.5 1 294 17.7
2006-01-19 12:35:18 51°9.291 2°33.539 245.8 4 239 17.3
2006-01-19 12:36:18 51°9.229 2°33.469 209.7 4.7 206 17.7
2006-01-19 12:37:17 51°9.197 2°33.448 199 0.1 83 18.2
2006-01-19 12:38:16 51°9.198 2°33.454 183.3 0.4 74 27.9
2006-01-19 12:39:17 51°9.187 2°33.464 184.7 2.2 173 18.3
2006-01-19 12:40:17 51°9.148 2°33.423 246.6 3.3 247 18.6
2006-01-19 12:41:18 51°9.149 2°33.314 268 4.5 266 18.3
2006-01-19 12:42:17 51°9.137 2°33.239 248.5 0.9 267 18.2
2006-01-19 12:43:17 51°9.144 2°33.243 256.1 0.5 29 18.1
2006-01-19 12:44:17 51°9.151 2°33.24 268.6 1.5 278 18
2006-01-19 12:45:17 51°9.13 2°33.173 233.7 4 231 18.1
2006-01-19 12:46:17 51°9.095 2°33.105 232.7 2.3 228 18.4
2006-01-19 12:47:17 51°9.089 2°33.098 227.3 0.1 145 18.5
2006-01-19 12:48:17 51°9.086 2°33.101 220.3 0.9 205 18.6
2006-01-19 12:49:17 51°9.051 2°33.046 239.5 4.2 237 18.9
2006-01-19 12:50:17 51°9.026 2°32.93 259.3 4.2 258 19
2006-01-19 12:51:18 51°9.028 2°32.905 287.4 0.6 31 19
2006-01-19 12:52:17 51°9.038 2°32.915 316.5 0.7 32 18.8
2006-01-19 12:53:17 51°9.058 2°32.894 290.5 2.5 297 18.3
2006-01-19 12:54:17 51°9.04 2°32.833 220.9 3.3 210 18.3
2006-01-19 12:55:17 51°8.979 2°32.781 222.4 4.5 215 19.2
2006-01-19 12:56:17 51°8.947 2°32.735 247.4 0.2 228 19.6
2006-01-19 12:57:17 51°8.95 2°32.735 268.5 0.4 15 19.5
2006-01-19 12:58:17 51°8.961 2°32.72 283.1 2.6 289 19.3
2006-01-19 12:59:17 51°8.936 2°32.647 216 4 207 19.3
2006-01-19 13:00:18 51°8.866 2°32.605 222.3 4 218 20.1
2006-01-19 13:01:17 51°8.844 2°32.542 260.9 0.4 295 20.1
2006-01-19 13:02:17 51°8.852 2°32.548 286.8 0.7 28 20.1
2006-01-19 13:03:17 51°8.865 2°32.562 314.2 1.1 38 20
2006-01-19 13:04:17 51°8.887 2°32.548 286 2.4 296 19.5
2006-01-19 13:05:17 51°8.855 2°32.494 216.9 5.2 207 19.6
2006-01-19 13:06:18 51°8.77 2°32.417 213.7 3.6 207 20.2
2006-01-19 13:07:17 51°8.764 2°32.42 246.8 0.6 72 20.2
2006-01-19 13:08:17 51°8.769 2°32.44 266.5 1 61 66.8
2006-01-19 13:09:17 51°8.773 2°32.4 260.6 4.1 263 20.1
2006-01-19 13:10:16 51°8.746 2°32.268 245.3 5.9 243 19.5
2006-01-19 13:11:18 51°8.719 2°32.21 240.4 0.2 257 19.6
2006-01-19 13:12:17 51°8.719 2°32.212 238.4 0.2 76 19.7
2006-01-19 13:13:18 51°8.721 2°32.222 236.5 0.5 66 19.8
2006-01-19 13:14:17 51°8.704 2°32.191 234.3 3.1 231 19.8
2006-01-19 13:15:18 51°8.664 2°32.117 235.2 2.4 230 19.7
2006-01-19 13:16:18 51°8.663 2°32.124 218.3 0.8 71 19.9
2006-01-19 13:17:17 51°8.666 2°32.15 200.2 1.1 109 20.1
2006-01-19 13:18:18 51°8.635 2°32.15 219.8 2.5 209 20.4
2006-01-19 13:19:17 51°8.617 2°32.08 265.4 4 277 20
2006-01-19 13:20:17 51°8.678 2°31.976 327.8 6.5 341 17.8
2006-01-19 13:21:17 51°8.766 2°32.027 37.1 4.5 44 15.5
2006-01-19 13:22:18 51°8.787 2°32.076 68.9 0.6 62 15.7
2006-01-19 13:23:17 51°8.795 2°32.095 80 1.1 58 51.5
2006-01-19 13:24:17 51°8.808 2°32.134 76.9 2.3 67 16.1
2006-01-19 13:25:17 51°8.82 2°32.184 83.7 0.7 52 16.7
2006-01-19 13:26:17 51°8.827 2°32.191 84.8 0.7 42 16.6
2006-01-19 13:27:17 51°8.837 2°32.211 82.8 1.6 67 16.5
2006-01-19 13:28:17 51°8.85 2°32.295 88.6 4.1 78 17.7
2006-01-19 13:29:18 51°8.86 2°32.346 85.1 0.5 39 41.9
2006-01-19 13:30:17 51°8.868 2°32.36 90.1 0.9 48 18.3
2006-01-19 13:31:18 51°8.885 2°32.431 70.2 4 64 18.7
2006-01-19 13:32:18 51°8.901 2°32.485 46.4 0.7 145 19.1
2006-01-19 13:33:17 51°8.897 2°32.503 45.2 0.9 95 19.4
2006-01-19 13:34:17 51°8.909 2°32.546 47.9 3.7 54 19.7
2006-01-19 13:35:18 51°8.976 2°32.615 6.3 5.3 17 18.5
2006-01-19 13:36:18 51°9.029 2°32.661 38.4 1.9 53 17.2
2006-01-19 13:37:17 51°9.031 2°32.671 56 0.4 55 41.4
2006-01-19 13:38:17 51°9.037 2°32.694 52.1 2.2 58 17.5
2006-01-19 13:39:18 51°9.073 2°32.778 54.4 4.2 55 17.5
2006-01-19 13:40:18 51°9.085 2°32.82 54.2 0.5 103 -999
2006-01-19 13:41:18 51°9.086 2°32.835 59.4 0.8 67 15.2
2006-01-19 13:42:17 51°9.11 2°32.9 52.3 5 53 18
2006-01-19 13:43:18 51°9.154 2°32.978 41.3 1.4 60 17.5
2006-01-19 13:44:18 51°9.151 2°32.995 42.4 0.8 91 -999
2006-01-19 13:45:17 51°9.158 2°33.028 41.3 2.8 53 18
2006-01-19 13:46:17 51°9.208 2°33.101 29.5 3.4 42 17.4
2006-01-19 13:47:18 51°9.212 2°33.133 30 1 98 17.7
2006-01-19 13:48:17 51°9.213 2°33.165 29 1.6 70 18
2006-01-19 13:49:17 51°9.255 2°33.219 18.1 4.4 31 17.4
2006-01-19 13:50:18 51°9.298 2°33.287 59.7 1.9 58 16.7
2006-01-19 13:51:18 51°9.307 2°33.305 79.2 1 50 -999
2006-01-19 13:52:18 51°9.32 2°33.334 79.6 1.9 62 16.5
2006-01-19 13:53:17 51°9.335 2°33.418 97.6 4.2 82 17
2006-01-19 13:54:17 51°9.354 2°33.526 72.9 3.2 68 17.8
2006-01-19 13:55:18 51°9.365 2°33.556 75.5 0.7 46 -999
2006-01-19 13:56:17 51°9.376 2°33.576 75.1 1.1 61 17.8
2006-01-19 13:57:17 51°9.4 2°33.639 53.4 4.9 51 17.8
2006-01-19 13:58:17 51°9.474 2°33.692 341.8 4.5 353 15.8
2006-01-19 13:59:17 51°9.503 2°33.63 257.7 2.7 250 14.5
2006-01-19 14:00:17 51°9.47 2°33.552 256.1 4.2 255 14.5
2006-01-19 14:01:17 51°9.44 2°33.449 248.1 3.5 242 14.4
2006-01-19 14:02:17 51°9.431 2°33.426 249.7 0.5 69 14.6
2006-01-19 14:03:17 51°9.435 2°33.441 254.7 0.6 66 14.5
2006-01-19 14:04:18 51°9.417 2°33.396 240.9 3.4 233 14.5
2006-01-19 14:05:18 51°9.378 2°33.303 245.3 4.4 241 14.6
2006-01-19 14:06:18 51°9.353 2°33.222 249.3 2.4 245 14.3
2006-01-19 14:07:17 51°9.35 2°33.213 248.1 0.3 68 14.3
2006-01-19 14:08:17 51°9.353 2°33.219 254.8 0.2 270 14.3
2006-01-19 14:09:17 51°9.337 2°33.181 236.3 2.7 228 14.4
2006-01-19 14:10:17 51°9.303 2°33.124 235 2.5 224 14.6
2006-01-19 14:11:17 51°9.281 2°33.086 241.6 1.4 230 14.8
2006-01-19 14:12:18 51°9.279 2°33.081 254.7 0.1 22 14.9
2006-01-19 14:13:17 51°9.282 2°33.075 261.4 1.3 270 14.7
2006-01-19 14:14:17 51°9.261 2°33.008 239.3 4 233 14.6
2006-01-19 14:15:18 51°9.217 2°32.931 231.1 2.9 220 14.9
2006-01-19 14:16:18 51°9.205 2°32.928 227.4 0.5 114 15.2
2006-01-19 14:17:18 51°9.202 2°32.944 224.6 0.6 154 15.5
2006-01-19 14:18:18 51°9.174 2°32.897 242.1 3.7 236 15.8
2006-01-19 14:19:17 51°9.144 2°32.795 253.6 4.1 252 15.3
2006-01-19 14:20:18 51°9.137 2°32.734 263 0.5 27 14.8
2006-01-19 14:21:17 51°9.147 2°32.755 283.7 1.1 54 14.7
2006-01-19 14:22:18 51°9.159 2°32.779 300.8 1 36 14.7
2006-01-19 14:23:18 51°9.167 2°32.743 251.5 2.4 248 14
2006-01-19 14:24:19 51°9.119 2°32.687 223.7 4.4 216 14.6
2006-01-19 14:25:19 51°9.073 2°32.603 242.2 3.1 236 14.9
2006-01-19 14:26:18 51°9.071 2°32.6 260.4 0.4 53 15
2006-01-19 14:27:19 51°9.078 2°32.614 282.3 0.8 49 14.9
2006-01-19 14:28:18 51°9.09 2°32.632 305.3 1 46 14.8
2006-01-19 14:29:18 51°9.104 2°32.65 313.9 1.2 20 14.6
2006-01-19 14:30:19 51°9.123 2°32.645 288.8 0.9 33 14
2006-01-19 14:31:18 51°9.133 2°32.676 295 1.3 65 14.1
2006-01-19 14:32:18 51°9.142 2°32.709 310 1.4 65 14.3
2006-01-19 14:33:18 51°9.156 2°32.73 307.3 1.9 332 14.1
2006-01-19 14:34:19 51°9.145 2°32.636 238.7 5.4 232 13.3
2006-01-19 14:35:18 51°9.07 2°32.517 235.1 6.6 232 13.7
2006-01-19 14:36:19 51°9.01 2°32.414 223.8 3.8 212 14.1
2006-01-19 14:37:19 51°9 2°32.425 202.4 1 84 14.6
2006-01-19 14:38:19 51°8.992 2°32.454 182.1 1.5 130 15.4
2006-01-19 14:39:18 51°8.968 2°32.468 215.7 1.4 187 16.5
2006-01-19 14:40:19 51°8.955 2°32.452 253.3 0.7 250 16.8
2006-01-19 14:41:19 51°8.959 2°32.44 269.9 0.5 311 16.4
2006-01-19 14:42:18 51°8.967 2°32.387 273.7 4.3 274 15.2
2006-01-19 14:43:19 51°8.942 2°32.255 253.5 4.6 251 13.7
2006-01-19 14:44:18 51°8.94 2°32.222 274.7 0.4 327 13.2
2006-01-19 14:45:19 51°8.952 2°32.218 292.4 0.9 354 12.9
2006-01-19 14:46:19 51°8.965 2°32.208 275.2 0.7 324 12.3
2006-01-19 14:47:18 51°8.968 2°32.199 250.1 0.2 249 12.2
2006-01-19 14:48:18 51°8.963 2°32.201 226.4 0.7 167 12.3
2006-01-19 14:49:18 51°8.922 2°32.163 228.8 4.1 221 12.8
2006-01-19 14:50:18 51°8.87 2°32.076 232.4 3.8 222 13
2006-01-19 14:51:19 51°8.859 2°32.072 239.2 0.4 134 13.5
2006-01-19 14:52:19 51°8.855 2°32.082 240.6 0.4 101 13.7
2006-01-19 14:53:18 51°8.855 2°32.093 246.8 0.5 84 13.9
2006-01-19 14:54:19 51°8.859 2°32.106 257 0.6 54 14
2006-01-19 14:55:19 51°8.867 2°32.12 270.7 0.8 43 14
2006-01-19 14:56:19 51°8.877 2°32.103 271.2 2.7 274 13.4
2006-01-19 14:57:19 51°8.84 2°31.997 235.2 5.7 231 12.8
2006-01-19 14:58:19 51°8.814 2°31.947 230.3 0.4 71 12.7
2006-01-19 14:59:18 51°8.814 2°31.961 226.5 0.5 91 12.9
2006-01-19 15:00:18 51°8.813 2°31.979 215.2 0.8 92 13.3
2006-01-19 15:01:19 51°8.812 2°32.005 199.2 1.1 93 13.9
2006-01-19 15:02:19 51°8.814 2°32.035 182.3 1.3 85 14.6
2006-01-19 15:03:18 51°8.818 2°32.069 166.4 1.4 78 15.1
2006-01-19 15:04:18 51°8.803 2°32.13 136.4 4.6 116 16.8
2006-01-19 15:05:19 51°8.811 2°32.298 75.9 8.3 73 19.5
2006-01-19 15:06:19 51°8.855 2°32.58 79.4 13.2 72 21.3
2006-01-19 15:07:18 51°8.927 2°32.921 76.3 13.9 71 21.2
2006-01-19 15:08:18 51°8.992 2°33.274 84.7 13.9 79 20.8
2006-01-19 15:09:18 51°9.042 2°33.638 82 14.2 75 20.6
2006-01-19 15:10:18 51°9.102 2°34.007 82.4 14.5 76 19.7
2006-01-19 15:11:18 51°9.168 2°34.38 79.8 14.7 74 19.3
2006-01-19 15:12:18 51°9.233 2°34.753 82.8 14.6 76 20.1
2006-01-19 15:13:18 51°9.295 2°35.128 82.6 14.5 77 19.7
2006-01-19 15:14:18 51°9.355 2°35.495 83 14.2 77 19.2
2006-01-19 15:15:18 51°9.414 2°35.86 81.4 14.3 76 18.7
2006-01-19 15:16:19 51°9.472 2°36.232 82.2 14.3 77 19.2
2006-01-19 15:17:18 51°9.526 2°36.594 81.1 14.3 76 18.5
2006-01-19 15:18:18 51°9.583 2°36.962 80.7 14.4 75 18.5
2006-01-19 15:19:18 51°9.646 2°37.334 80 14.6 75 18.8
2006-01-19 15:20:18 51°9.704 2°37.71 82.6 14.6 77 17.9
2006-01-19 15:21:18 51°9.765 2°38.092 81.2 14.9 76 17.1
2006-01-19 15:22:18 51°9.83 2°38.468 79.1 14.8 74 16.3
2006-01-19 15:23:18 51°9.896 2°38.844 79.9 14.8 75 15.7
2006-01-19 15:24:18 51°9.968 2°39.217 76.7 14.7 71 15.1
2006-01-19 15:25:19 51°10.042 2°39.596 77.2 14.7 73 14.6
2006-01-19 15:26:18 51°10.114 2°39.963 77.1 14.8 73 14.4
2006-01-19 15:27:18 51°10.187 2°40.338 77.4 14.8 73 14.3
2006-01-19 15:28:18 51°10.258 2°40.708 77.6 14.6 74 14.1
2006-01-19 15:29:18 51°10.332 2°41.077 75.4 14.6 71 14
2006-01-19 15:30:19 51°10.41 2°41.446 75.4 14.5 71 13.9
2006-01-19 15:31:18 51°10.491 2°41.802 74.3 14.6 70 13.8
2006-01-19 15:32:18 51°10.572 2°42.165 74.5 14.5 71 13.8
2006-01-19 15:33:18 51°10.654 2°42.526 73.8 14.5 71 13.7
2006-01-19 15:34:18 51°10.736 2°42.887 72.2 14.5 69 13.8
2006-01-19 15:35:17 51°10.824 2°43.238 72 14.5 69 13.7
2006-01-19 15:36:18 51°10.913 2°43.602 72.3 14.5 69 13.8
2006-01-19 15:37:18 51°11 2°43.963 72.5 14.5 70 13.9
2006-01-19 15:38:18 51°11.088 2°44.319 71.7 14.5 68 13.9
2006-01-19 15:39:18 51°11.173 2°44.678 73.4 14.5 69 14
2006-01-19 15:40:19 51°11.265 2°45.041 71.5 14.5 68 14
2006-01-19 15:41:18 51°11.363 2°45.386 68.8 14.5 66 14.2
2006-01-19 15:42:18 51°11.46 2°45.738 70.1 14.5 67 14.2
2006-01-19 15:43:18 51°11.565 2°46.085 67.3 14.6 64 14.4
2006-01-19 15:44:18 51°11.67 2°46.43 67.5 14.5 64 14.5
2006-01-19 15:45:18 51°11.777 2°46.78 67.8 14.7 64 14.4
2006-01-19 15:46:18 51°11.885 2°47.127 68 14.6 65 14.4
2006-01-19 15:47:18 51°11.994 2°47.473 66 14.6 62 14.4
2006-01-19 15:48:18 51°12.111 2°47.812 64.4 14.7 61 14.4
2006-01-19 15:49:18 51°12.228 2°48.152 63.7 14.6 60 14.5
2006-01-19 15:50:18 51°12.347 2°48.488 63.6 14.5 60 14.4
2006-01-19 15:51:18 51°12.465 2°48.825 64.5 14.5 61 14.3
2006-01-19 15:52:18 51°12.585 2°49.158 63.1 14.5 60 14.3
2006-01-19 15:53:18 51°12.708 2°49.493 63.6 14.7 60 14.2
2006-01-19 15:54:18 51°12.829 2°49.83 63 14.7 60 14.1
2006-01-19 15:55:18 51°12.953 2°50.166 63.5 14.8 59 14
2006-01-19 15:56:18 51°13.078 2°50.504 62.9 14.8 59 13.9
2006-01-19 15:57:18 51°13.202 2°50.841 64 14.8 60 13.8
2006-01-19 15:58:19 51°13.329 2°51.184 62.9 14.8 59 13.6
2006-01-19 15:59:18 51°13.453 2°51.517 63.1 14.7 60 13.6
2006-01-19 16:00:18 51°13.579 2°51.852 63.8 14.7 59 13.3
2006-01-19 16:01:17 51°13.704 2°52.181 63.1 14.7 59 13.2
2006-01-19 16:02:18 51°13.832 2°52.524 63 14.9 58 13.1
2006-01-19 16:03:18 51°13.957 2°52.862 63.9 14.8 59 13
2006-01-19 16:04:18 51°14.071 2°53.17 64.9 11.4 60 12.8
2006-01-19 16:05:18 51°14.151 2°53.371 59.2 7.5 56 12.7
2006-01-19 16:06:18 51°14.212 2°53.513 62.1 6 57 12.6
2006-01-19 16:07:18 51°14.256 2°53.639 74.6 5 65 12.5
2006-01-19 16:08:18 51°14.285 2°53.754 84.2 4.4 71 12.5
2006-01-19 16:09:17 51°14.306 2°53.858 88 4.2 71 12.4
2006-01-19 16:10:17 51°14.337 2°53.949 63.5 3.8 58 12.4
2006-01-19 16:11:18 51°14.373 2°54.035 59.5 3.8 54 12.5
2006-01-19 16:12:18 51°14.409 2°54.11 54.7 2.9 51 12.4
2006-01-19 16:13:18 51°14.425 2°54.14 67.5 0.8 36 12.5
2006-01-19 16:14:18 51°14.438 2°54.159 68.2 0.9 43 12.5
2006-01-19 16:15:18 51°14.451 2°54.18 74.2 1.2 47 12.6
2006-01-19 16:16:18 51°14.465 2°54.209 78.4 1.6 53 12.7
2006-01-19 16:17:18 51°14.478 2°54.231 88.7 1 37 13.2
2006-01-19 16:18:18 51°14.493 2°54.255 96.2 1.6 53 13.1
2006-01-19 16:19:18 51°14.508 2°54.309 98.9 3 73 12.8
2006-01-19 16:20:18 51°14.517 2°54.416 103.7 4.4 87 12.8
2006-01-19 16:21:18 51°14.514 2°54.561 108.1 6.4 95 12.8
2006-01-19 16:22:18 51°14.473 2°54.77 125.2 9.9 114 12.9
2006-01-19 16:23:18 51°14.381 2°55.026 131.9 11.5 125 12.8
2006-01-19 16:24:18 51°14.268 2°55.26 132.9 10.7 129 13
2006-01-19 16:25:18 51°14.165 2°55.384 157.1 6.2 152 12.7
2006-01-19 16:26:18 51°14.073 2°55.454 159.4 5.7 153 12.6
2006-01-19 16:27:20 51°13.99 2°55.519 160.5 5.3 155 12.5
2006-01-19 16:28:20 51°13.911 2°55.577 160.5 5.1 155 -999
2006-01-19 16:29:20 51°13.835 2°55.633 160.4 5 155 -999
2006-01-19 16:30:20 51°13.763 2°55.698 149.2 4.9 145 -999
2006-01-19 16:31:20 51°13.705 2°55.791 133.6 5 128 -999
2006-01-19 16:32:20 51°13.66 2°55.895 127.8 4.5 122 -999
2006-01-19 16:33:20 51°13.63 2°55.989 115.1 3.6 111 -999
2006-01-19 16:34:20 51°13.612 2°56.057 121.9 2.3 114 -999
2006-01-19 16:35:20 51°13.605 2°56.078 137.9 0.4 142 -999
2006-01-19 16:36:20 51°13.599 2°56.088 133.8 -999 262 -999
2006-01-19 16:37:20 51°13.602 2°56.085 135 0.1 42 -999
2006-01-19 16:38:20 51°13.598 2°56.092 131.7 0.4 123 -999
2006-01-19 16:39:20 51°13.597 2°56.097 126.4 0.1 260 -999